sensor_id;sensor_type;location;lat;lon;timestamp;temperature;humidity
31687;DHT22;18285;51.330;4.946;2022-08-30T00:16:51;24.80;47.10
31687;DHT22;18285;51.330;4.946;2022-08-30T00:41:02;24.70;47.30
31687;DHT22;18285;51.330;4.946;2022-08-30T01:05:14;24.80;47.50
31687;DHT22;18285;51.330;4.946;2022-08-30T01:29:25;24.80;47.50
31687;DHT22;18285;51.330;4.946;2022-08-30T01:53:37;24.70;47.50
31687;DHT22;18285;51.330;4.946;2022-08-30T02:17:48;24.80;47.70
31687;DHT22;18285;51.330;4.946;2022-08-30T02:41:58;24.80;47.60
31687;DHT22;18285;51.330;4.946;2022-08-30T03:06:09;24.80;47.80
31687;DHT22;18285;51.330;4.946;2022-08-30T03:30:20;24.80;47.70
31687;DHT22;18285;51.330;4.946;2022-08-30T03:54:31;24.80;47.80
31687;DHT22;18285;51.330;4.946;2022-08-30T04:18:41;24.80;47.70
31687;DHT22;18285;51.330;4.946;2022-08-30T04:42:52;24.80;47.80
31687;DHT22;18285;51.330;4.946;2022-08-30T05:07:03;24.80;47.70
31687;DHT22;18285;51.330;4.946;2022-08-30T05:31:22;24.80;47.70
31687;DHT22;18285;51.330;4.946;2022-08-30T05:55:33;24.80;47.50
31687;DHT22;18285;51.330;4.946;2022-08-30T06:19:44;24.80;47.70
31687;DHT22;18285;51.330;4.946;2022-08-30T06:43:56;24.90;47.80
31687;DHT22;18285;51.330;4.946;2022-08-30T07:08:07;24.90;47.80
31687;DHT22;18285;51.330;4.946;2022-08-30T07:32:17;25.00;47.90
31687;DHT22;18285;51.330;4.946;2022-08-30T07:56:29;24.90;47.80
31687;DHT22;18285;51.330;4.946;2022-08-30T08:20:40;25.00;48.70
31687;DHT22;18285;51.330;4.946;2022-08-30T08:44:59;24.90;49.10
31687;DHT22;18285;51.330;4.946;2022-08-30T09:09:12;24.90;48.90
31687;DHT22;18285;51.330;4.946;2022-08-30T09:33:23;24.80;48.90
31687;DHT22;18285;51.330;4.946;2022-08-30T09:57:48;24.90;48.90
31687;DHT22;18285;51.330;4.946;2022-08-30T10:22:36;25.00;49.30
31687;DHT22;18285;51.330;4.946;2022-08-30T10:47:12;24.80;48.20
31687;DHT22;18285;51.330;4.946;2022-08-30T11:11:54;24.90;48.60
31687;DHT22;18285;51.330;4.946;2022-08-30T11:36:08;25.00;48.10
31687;DHT22;18285;51.330;4.946;2022-08-30T12:00:37;25.00;48.00
31687;DHT22;18285;51.330;4.946;2022-08-30T12:24:51;25.00;47.80
31687;DHT22;18285;51.330;4.946;2022-08-30T12:49:03;25.00;47.80
31687;DHT22;18285;51.330;4.946;2022-08-30T13:13:27;25.00;47.90
31687;DHT22;18285;51.330;4.946;2022-08-30T13:37:43;25.00;47.60
31687;DHT22;18285;51.330;4.946;2022-08-30T14:01:54;25.00;47.60
31687;DHT22;18285;51.330;4.946;2022-08-30T14:26:10;25.00;47.60
31687;DHT22;18285;51.330;4.946;2022-08-30T14:50:23;25.00;47.30
31687;DHT22;18285;51.330;4.946;2022-08-30T15:14:33;25.00;47.40
31687;DHT22;18285;51.330;4.946;2022-08-30T15:38:44;25.00;47.30
31687;DHT22;18285;51.330;4.946;2022-08-30T16:02:55;25.00;47.20
31687;DHT22;18285;51.330;4.946;2022-08-30T16:27:06;24.90;47.30
31687;DHT22;18285;51.330;4.946;2022-08-30T16:51:20;25.00;47.10
31687;DHT22;18285;51.330;4.946;2022-08-30T17:15:33;25.10;47.20
31687;DHT22;18285;51.330;4.946;2022-08-30T17:39:44;25.00;47.00
31687;DHT22;18285;51.330;4.946;2022-08-30T18:03:55;25.00;45.90
31687;DHT22;18285;51.330;4.946;2022-08-30T18:28:06;25.00;43.30
31687;DHT22;18285;51.330;4.946;2022-08-30T18:52:17;25.00;42.00
31687;DHT22;18285;51.330;4.946;2022-08-30T19:16:27;25.00;41.60
31687;DHT22;18285;51.330;4.946;2022-08-30T19:40:38;24.90;41.00
31687;DHT22;18285;51.330;4.946;2022-08-30T20:04:49;24.80;41.10
31687;DHT22;18285;51.330;4.946;2022-08-30T20:29:01;24.60;43.30
31687;DHT22;18285;51.330;4.946;2022-08-30T20:53:12;24.90;44.40
31687;DHT22;18285;51.330;4.946;2022-08-30T21:17:22;25.00;44.60
31687;DHT22;18285;51.330;4.946;2022-08-30T21:41:34;24.90;45.00
31687;DHT22;18285;51.330;4.946;2022-08-30T22:05:50;24.80;44.90
31687;DHT22;18285;51.330;4.946;2022-08-30T22:30:02;24.90;45.10
31687;DHT22;18285;51.330;4.946;2022-08-30T22:54:12;24.70;44.90
31687;DHT22;18285;51.330;4.946;2022-08-30T23:18:23;24.80;45.20
31687;DHT22;18285;51.330;4.946;2022-08-30T23:42:34;24.80;45.60
